< < Back
Terminal Aerodrome Forecast


Current Version              Previous Versions:   1  2  3  4  5  6  7  8  9  

Terminal Aerodrome Forecast

751
FTUS44 KBMX 300500
TAFTCL
TAF
KTCL 300528Z 3006/0106 05003KT P6SM SKC
     FM301100 00000KT 5SM BR BKN011
     FM301400 07003KT P6SM SKC=

Latest METAR

294
SAUS70 KWBC 301000 RRP
MTRTCL
METAR KTCL 300953Z AUTO 00000KT 10SM CLR 18/17 A2993 RMK AO2 SLP133
T01830167


USA.gov is the U.S. government's official web portal to all federal, state and local government web resources and services.